createdAt,value
2018-08-30T00:00:05.352Z,18.96
2018-08-30T00:00:25.212Z,18.95
2018-08-30T00:00:45.564Z,18.95
2018-08-30T00:01:06.286Z,18.94
2018-08-30T00:01:26.141Z,18.94
2018-08-30T00:01:46.712Z,18.95
2018-08-30T00:02:06.912Z,18.93
2018-08-30T00:02:26.761Z,18.91
2018-08-30T00:02:47.122Z,18.93
2018-08-30T00:03:07.769Z,18.92
2018-08-30T00:03:27.623Z,18.92
2018-08-30T00:03:48.080Z,18.91
2018-08-30T00:04:08.440Z,18.91
2018-08-30T00:04:28.794Z,18.91
2018-08-30T00:04:49.513Z,18.90
2018-08-30T00:05:09.614Z,18.90
2018-08-30T00:05:29.471Z,18.90
2018-08-30T00:05:50.178Z,18.89
2018-08-30T00:06:10.044Z,18.87
2018-08-30T00:06:30.406Z,18.88
2018-08-30T00:06:51.043Z,18.88
2018-08-30T00:07:10.897Z,18.88
2018-08-30T00:07:31.240Z,18.87
2018-08-30T00:07:51.938Z,18.86
2018-08-30T00:08:11.787Z,18.86
2018-08-30T00:08:32.131Z,18.86
2018-08-30T00:08:52.783Z,18.84
2018-08-30T00:09:12.648Z,18.85
2018-08-30T00:09:33.138Z,18.84
2018-08-30T00:09:53.924Z,18.83
2018-08-30T00:10:14.009Z,18.83
2018-08-30T00:10:34.242Z,18.82
2018-08-30T00:10:54.283Z,18.83
2018-08-30T00:11:14.128Z,18.81
2018-08-30T00:11:34.824Z,18.81
2018-08-30T00:11:54.685Z,18.80
2018-08-30T00:12:15.043Z,18.80
2018-08-30T00:12:35.793Z,18.79
2018-08-30T00:12:55.645Z,18.79
2018-08-30T00:13:15.986Z,18.79
2018-08-30T00:13:36.639Z,18.79
2018-08-30T00:13:56.506Z,18.79
2018-08-30T00:14:16.861Z,18.79
2018-08-30T00:14:37.507Z,18.77
2018-08-30T00:14:57.383Z,18.77
2018-08-30T00:15:17.721Z,18.77
2018-08-30T00:15:38.364Z,18.76
2018-08-30T00:15:58.477Z,18.76
2018-08-30T00:16:18.624Z,18.75
2018-08-30T00:16:38.737Z,18.77
2018-08-30T00:16:58.860Z,18.76
2018-08-30T00:17:19.052Z,18.76
2018-08-30T00:17:39.411Z,18.75
2018-08-30T00:17:59.350Z,18.75
2018-08-30T00:18:20.058Z,18.74
2018-08-30T00:18:39.973Z,18.73
2018-08-30T00:19:00.310Z,18.73
2018-08-30T00:19:21.010Z,18.73
2018-08-30T00:19:40.873Z,18.73
2018-08-30T00:20:01.227Z,18.72
2018-08-30T00:20:21.919Z,18.72
2018-08-30T00:20:41.775Z,18.72
2018-08-30T00:21:02.157Z,18.71
2018-08-30T00:21:22.789Z,18.71
2018-08-30T00:21:42.654Z,18.70
2018-08-30T00:22:03.356Z,18.69
2018-08-30T00:22:23.502Z,18.68
2018-08-30T00:22:43.457Z,18.68
2018-08-30T00:23:04.143Z,18.68
2018-08-30T00:23:24.303Z,18.65
2018-08-30T00:23:44.187Z,18.65
2018-08-30T00:24:04.871Z,18.65
2018-08-30T00:24:24.736Z,18.63
2018-08-30T00:24:45.220Z,18.63
2018-08-30T00:25:05.908Z,18.61
2018-08-30T00:25:25.768Z,18.59
2018-08-30T00:25:46.137Z,18.59
2018-08-30T00:26:06.867Z,18.59
2018-08-30T00:26:26.769Z,18.58
2018-08-30T00:26:47.271Z,18.57
2018-08-30T00:27:07.933Z,18.54
2018-08-30T00:27:27.805Z,18.55
2018-08-30T00:27:48.301Z,18.53
2018-08-30T00:28:09.072Z,18.51
2018-08-30T00:28:29.078Z,18.52
2018-08-30T00:28:49.277Z,18.51
2018-08-30T00:29:09.133Z,18.48
2018-08-30T00:29:29.503Z,18.48
2018-08-30T00:29:50.266Z,18.49
2018-08-30T00:30:10.117Z,18.46
2018-08-30T00:30:30.479Z,18.46
2018-08-30T00:30:51.145Z,18.45
2018-08-30T00:31:11.011Z,18.45
2018-08-30T00:31:31.359Z,18.44
2018-08-30T00:31:52.096Z,18.42
2018-08-30T00:32:12.061Z,18.41
2018-08-30T00:32:32.587Z,18.41
2018-08-30T00:32:52.726Z,18.40
2018-08-30T00:33:12.573Z,18.38
2018-08-30T00:33:33.028Z,18.39
2018-08-30T00:33:53.653Z,18.37
2018-08-30T00:34:13.517Z,18.36
2018-08-30T00:34:34.229Z,18.35
2018-08-30T00:34:54.440Z,18.33
2018-08-30T00:35:14.603Z,18.33
2018-08-30T00:35:34.796Z,18.31
2018-08-30T00:35:54.684Z,18.31
2018-08-30T00:36:15.041Z,18.30
2018-08-30T00:36:35.795Z,18.29
2018-08-30T00:36:55.676Z,18.28
2018-08-30T00:37:16.033Z,18.27
2018-08-30T00:37:36.735Z,18.26
2018-08-30T00:37:56.632Z,18.25
2018-08-30T00:38:17.106Z,18.24
2018-08-30T00:38:37.745Z,18.23
2018-08-30T00:38:57.642Z,18.22
2018-08-30T00:39:18.073Z,18.21
2018-08-30T00:39:38.715Z,18.19
2018-08-30T00:39:58.634Z,18.17
2018-08-30T00:40:19.360Z,18.17
2018-08-30T00:40:39.297Z,18.14
2018-08-30T00:40:59.755Z,18.13
2018-08-30T00:41:20.529Z,18.13
2018-08-30T00:41:40.326Z,18.12
2018-08-30T00:42:00.681Z,18.11
2018-08-30T00:42:21.334Z,18.10
2018-08-30T00:42:41.202Z,18.09
2018-08-30T00:43:01.610Z,18.08
2018-08-30T00:43:22.244Z,18.07
2018-08-30T00:43:42.097Z,18.06
2018-08-30T00:44:02.695Z,18.06
2018-08-30T00:44:22.834Z,18.03
2018-08-30T00:44:42.697Z,18.04
2018-08-30T00:45:03.258Z,18.02
2018-08-30T00:45:23.408Z,18.00
2018-08-30T00:45:43.265Z,18.00
2018-08-30T00:46:03.964Z,17.99
2018-08-30T00:46:24.219Z,17.96
2018-08-30T00:46:44.188Z,17.95
2018-08-30T00:47:04.911Z,17.94
2018-08-30T00:47:24.881Z,17.93
2018-08-30T00:47:45.243Z,17.91
2018-08-30T00:48:05.963Z,17.90
2018-08-30T00:48:25.810Z,17.89
2018-08-30T00:48:46.401Z,17.88
2018-08-30T00:49:06.652Z,17.86
2018-08-30T00:49:26.504Z,17.85
2018-08-30T00:49:46.866Z,17.85
2018-08-30T00:50:07.539Z,17.84
2018-08-30T00:50:27.399Z,17.83
2018-08-30T00:50:47.764Z,17.83
2018-08-30T00:51:08.185Z,17.82
2018-08-30T00:51:28.543Z,17.81
2018-08-30T00:51:49.259Z,17.79
2018-08-30T00:52:09.332Z,17.78
2018-08-30T00:52:29.174Z,17.78
2018-08-30T00:52:49.887Z,17.76
2018-08-30T00:53:09.761Z,17.76
2018-08-30T00:53:30.120Z,17.75
2018-08-30T00:53:50.812Z,17.75
2018-08-30T00:54:10.667Z,17.73
2018-08-30T00:54:31.012Z,17.73
2018-08-30T00:54:51.685Z,17.72
2018-08-30T00:55:11.550Z,17.70
2018-08-30T00:55:31.913Z,17.68
2018-08-30T00:55:52.585Z,17.68
2018-08-30T00:56:12.454Z,17.67
2018-08-30T00:56:32.802Z,17.65
2018-08-30T00:56:53.443Z,17.63
2018-08-30T00:57:13.301Z,17.62
2018-08-30T00:57:33.987Z,17.62
2018-08-30T00:57:54.143Z,17.61
2018-08-30T00:58:13.992Z,17.60
2018-08-30T00:58:34.702Z,17.59
2018-08-30T00:58:54.595Z,17.60
2018-08-30T00:59:14.953Z,17.59
2018-08-30T00:59:35.671Z,17.57
2018-08-30T00:59:55.532Z,17.57
2018-08-30T01:00:16.136Z,17.56
2018-08-30T01:00:36.317Z,17.57
2018-08-30T01:00:56.163Z,17.56
2018-08-30T01:01:16.533Z,17.55
2018-08-30T01:01:37.212Z,17.57
2018-08-30T01:01:57.066Z,17.55
2018-08-30T01:02:17.486Z,17.56
2018-08-30T01:02:38.097Z,17.56
2018-08-30T01:02:57.946Z,17.56
2018-08-30T01:03:18.541Z,17.56
2018-08-30T01:03:38.656Z,17.57
2018-08-30T01:03:58.513Z,17.57
2018-08-30T01:04:19.331Z,17.57
2018-08-30T01:04:39.286Z,17.57
2018-08-30T01:04:59.631Z,17.58
2018-08-30T01:05:20.374Z,17.58
2018-08-30T01:05:40.306Z,17.59
2018-08-30T01:06:00.649Z,17.59
2018-08-30T01:06:21.384Z,17.60
2018-08-30T01:06:41.260Z,17.61
2018-08-30T01:07:01.713Z,17.60
2018-08-30T01:07:22.376Z,17.63
2018-08-30T01:07:42.237Z,17.63
2018-08-30T01:08:02.907Z,17.63
2018-08-30T01:08:23.053Z,17.66
2018-08-30T01:08:42.903Z,17.66
2018-08-30T01:09:03.631Z,17.67
2018-08-30T01:09:23.773Z,17.68
2018-08-30T01:09:43.738Z,17.69
2018-08-30T01:10:04.448Z,17.68
2018-08-30T01:10:24.561Z,17.70
2018-08-30T01:10:44.396Z,17.70
2018-08-30T01:11:05.101Z,17.70
2018-08-30T01:11:25.056Z,17.71
2018-08-30T01:11:45.421Z,17.73
2018-08-30T01:12:06.142Z,17.73
2018-08-30T01:12:46.013Z,17.73
2018-08-30T01:13:06.741Z,17.76
2018-08-30T01:13:26.637Z,17.77
2018-08-30T01:13:46.995Z,17.77
2018-08-30T01:14:07.664Z,17.77
2018-08-30T01:14:27.528Z,17.78
2018-08-30T01:14:47.875Z,17.79
2018-08-30T01:15:08.521Z,17.79
2018-08-30T01:15:28.378Z,17.80
2018-08-30T01:15:49.115Z,17.81
2018-08-30T01:16:09.261Z,17.82
2018-08-30T01:16:29.123Z,17.82
2018-08-30T01:16:49.842Z,17.82
2018-08-30T01:17:09.697Z,17.83
2018-08-30T01:17:30.038Z,17.83
2018-08-30T01:17:50.752Z,17.83
2018-08-30T01:18:10.695Z,17.83
2018-08-30T01:18:31.044Z,17.83
2018-08-30T01:18:51.766Z,17.83
2018-08-30T01:19:11.699Z,17.84
2018-08-30T01:19:32.060Z,17.85
2018-08-30T01:19:52.706Z,17.84
2018-08-30T01:20:12.566Z,17.84
2018-08-30T01:20:33.013Z,17.86
2018-08-30T01:20:53.667Z,17.85
2018-08-30T01:21:13.528Z,17.85
2018-08-30T01:21:34.226Z,17.86
2018-08-30T01:21:54.250Z,17.85
2018-08-30T01:22:14.100Z,17.86
2018-08-30T01:22:34.840Z,17.86
2018-08-30T01:22:54.685Z,17.88
2018-08-30T01:23:15.073Z,17.87
2018-08-30T01:23:35.772Z,17.89
2018-08-30T01:23:55.628Z,17.89
2018-08-30T01:24:15.979Z,17.88
2018-08-30T01:24:36.642Z,17.90
2018-08-30T01:24:56.501Z,17.90
2018-08-30T01:25:16.859Z,17.89
2018-08-30T01:25:37.503Z,17.89
2018-08-30T01:25:57.367Z,17.89
2018-08-30T01:26:17.754Z,17.89
2018-08-30T01:26:38.403Z,17.90
2018-08-30T01:26:58.255Z,17.88
2018-08-30T01:27:18.964Z,17.88
2018-08-30T01:27:39.067Z,17.89
2018-08-30T01:27:59.081Z,17.88
2018-08-30T01:28:19.293Z,17.87
2018-08-30T01:28:39.510Z,17.88
2018-08-30T01:28:59.493Z,17.87
2018-08-30T01:29:20.286Z,17.87
2018-08-30T01:29:40.147Z,17.87
2018-08-30T01:30:00.498Z,17.86
2018-08-30T01:30:21.201Z,17.86
2018-08-30T01:30:41.057Z,17.84
2018-08-30T01:31:01.414Z,17.85
2018-08-30T01:31:22.118Z,17.83
2018-08-30T01:31:42.064Z,17.83
2018-08-30T01:32:02.723Z,17.82
2018-08-30T01:32:22.869Z,17.81
2018-08-30T01:32:42.797Z,17.83
2018-08-30T01:33:06.115Z,17.82
2018-08-30T01:33:23.762Z,17.82
2018-08-30T01:33:43.665Z,17.83
2018-08-30T01:34:04.346Z,17.83
2018-08-30T01:34:24.274Z,17.83
2018-08-30T01:34:44.676Z,17.83
2018-08-30T01:35:05.416Z,17.83
2018-08-30T01:35:25.328Z,17.83
2018-08-30T01:35:45.682Z,17.82
2018-08-30T01:36:06.339Z,17.82
2018-08-30T01:36:26.183Z,17.81
2018-08-30T01:36:46.551Z,17.81
2018-08-30T01:37:07.218Z,17.81
2018-08-30T01:37:27.241Z,17.81
2018-08-30T01:37:47.096Z,17.81
2018-08-30T01:38:07.742Z,17.80
2018-08-30T01:38:27.590Z,17.80
2018-08-30T01:38:48.020Z,17.80
2018-08-30T01:39:08.679Z,17.81
2018-08-30T01:39:28.537Z,17.80
2018-08-30T01:39:49.231Z,17.80
2018-08-30T01:40:09.243Z,17.80
2018-08-30T01:40:29.113Z,17.81
2018-08-30T01:40:49.799Z,17.79
2018-08-30T01:41:09.676Z,17.81
2018-08-30T01:41:30.026Z,17.80
2018-08-30T01:41:50.773Z,17.81
2018-08-30T01:42:10.715Z,17.82
2018-08-30T01:42:31.074Z,17.81
2018-08-30T01:42:51.752Z,17.83
2018-08-30T01:43:11.607Z,17.83
2018-08-30T01:43:31.974Z,17.83
2018-08-30T01:43:52.612Z,17.84
2018-08-30T01:44:12.464Z,17.84
2018-08-30T01:44:32.838Z,17.83
2018-08-30T01:44:53.480Z,17.85
2018-08-30T01:45:13.412Z,17.85
2018-08-30T01:45:34.131Z,17.84
2018-08-30T01:45:54.131Z,17.84
2018-08-30T01:46:13.999Z,17.84
2018-08-30T01:46:34.723Z,17.84
2018-08-30T01:46:54.882Z,17.84
2018-08-30T01:47:14.738Z,17.84
2018-08-30T01:47:35.446Z,17.84
2018-08-30T01:47:55.301Z,17.83
2018-08-30T01:48:15.691Z,17.82
2018-08-30T01:48:36.373Z,17.80
2018-08-30T01:48:56.274Z,17.79
2018-08-30T01:49:16.632Z,17.79
2018-08-30T01:49:37.320Z,17.78
2018-08-30T01:49:57.166Z,17.80
2018-08-30T01:50:17.780Z,17.81
2018-08-30T01:50:37.933Z,17.79
2018-08-30T01:50:57.779Z,17.80
2018-08-30T01:51:18.352Z,17.80
2018-08-30T01:51:38.494Z,17.79
2018-08-30T01:51:58.353Z,17.79
2018-08-30T01:52:19.038Z,17.79
2018-08-30T01:52:39.107Z,17.77
2018-08-30T01:52:58.955Z,17.76
2018-08-30T01:53:19.675Z,17.77
2018-08-30T01:53:39.637Z,17.76
2018-08-30T01:53:59.989Z,17.74
2018-08-30T01:54:20.691Z,17.75
2018-08-30T01:54:40.540Z,17.73
2018-08-30T01:55:00.908Z,17.71
2018-08-30T01:55:21.568Z,17.71
2018-08-30T01:55:41.431Z,17.70
2018-08-30T01:56:02.105Z,17.71
2018-08-30T01:56:22.289Z,17.71
2018-08-30T01:56:42.186Z,17.69
2018-08-30T01:57:02.866Z,17.66
2018-08-30T01:57:23.006Z,17.67
2018-08-30T01:57:42.854Z,17.67
2018-08-30T01:58:03.563Z,17.67
2018-08-30T01:58:23.718Z,17.68
2018-08-30T01:58:43.568Z,17.65
2018-08-30T01:59:04.253Z,17.65
2018-08-30T01:59:24.370Z,17.65
2018-08-30T01:59:44.326Z,17.63
2018-08-30T02:00:05.074Z,17.64
2018-08-30T02:00:24.927Z,17.63
2018-08-30T02:00:45.294Z,17.62
2018-08-30T02:01:06.056Z,17.62
2018-08-30T02:01:25.924Z,17.63
2018-08-30T02:01:46.267Z,17.63
2018-08-30T02:02:06.957Z,17.62
2018-08-30T02:02:26.817Z,17.61
2018-08-30T02:02:47.180Z,17.61
2018-08-30T02:03:07.814Z,17.61
2018-08-30T02:03:27.684Z,17.60
2018-08-30T02:03:48.120Z,17.59
2018-08-30T02:04:08.478Z,17.59
2018-08-30T02:04:28.829Z,17.59
2018-08-30T02:04:49.547Z,17.57
2018-08-30T02:05:09.406Z,17.57
2018-08-30T02:05:29.758Z,17.56
2018-08-30T02:05:50.469Z,17.57
2018-08-30T02:06:10.321Z,17.55
2018-08-30T02:06:30.673Z,17.55
2018-08-30T02:06:51.326Z,17.53
2018-08-30T02:07:11.466Z,17.56
2018-08-30T02:07:31.319Z,17.57
2018-08-30T02:07:51.994Z,17.57
2018-08-30T02:08:11.890Z,17.57
2018-08-30T02:08:32.268Z,17.57
2018-08-30T02:08:52.912Z,17.56
2018-08-30T02:09:12.886Z,17.56
2018-08-30T02:09:33.491Z,17.55
2018-08-30T02:09:53.615Z,17.55
2018-08-30T02:10:13.546Z,17.57
2018-08-30T02:10:34.246Z,17.57
2018-08-30T02:10:54.235Z,17.57
2018-08-30T02:11:14.585Z,17.56
2018-08-30T02:11:35.327Z,17.56
2018-08-30T02:11:55.181Z,17.57
2018-08-30T02:12:15.536Z,17.57
2018-08-30T02:12:36.266Z,17.56
2018-08-30T02:12:56.131Z,17.56
2018-08-30T02:13:16.498Z,17.56
2018-08-30T02:13:37.204Z,17.58
2018-08-30T02:13:57.059Z,17.58
2018-08-30T02:14:17.406Z,17.58
2018-08-30T02:14:38.044Z,17.57
2018-08-30T02:14:57.898Z,17.58
2018-08-30T02:15:18.571Z,17.57
2018-08-30T02:15:38.718Z,17.57
2018-08-30T02:15:58.564Z,17.57
2018-08-30T02:16:19.274Z,17.57
2018-08-30T02:16:39.471Z,17.56
2018-08-30T02:16:59.390Z,17.55
2018-08-30T02:17:20.141Z,17.57
2018-08-30T02:17:40.077Z,17.57
2018-08-30T02:18:00.421Z,17.57
2018-08-30T02:18:21.121Z,17.57
2018-08-30T02:18:40.994Z,17.57
2018-08-30T02:19:01.437Z,17.57
2018-08-30T02:19:22.038Z,17.56
2018-08-30T02:19:41.889Z,17.56
2018-08-30T02:20:02.566Z,17.57
2018-08-30T02:20:22.708Z,17.56
2018-08-30T02:20:42.713Z,17.56
2018-08-30T02:21:02.881Z,17.57
2018-08-30T02:21:23.021Z,17.56
2018-08-30T02:21:43.073Z,17.55
2018-08-30T02:22:03.254Z,17.56
2018-08-30T02:22:23.398Z,17.57
2018-08-30T02:22:43.269Z,17.56
2018-08-30T02:23:04.046Z,17.57
2018-08-30T02:23:24.086Z,17.56
2018-08-30T02:23:44.027Z,17.56
2018-08-30T02:24:04.716Z,17.55
2018-08-30T02:24:24.637Z,17.55
2018-08-30T02:24:44.993Z,17.55
2018-08-30T02:25:05.706Z,17.56
2018-08-30T02:25:25.560Z,17.55
2018-08-30T02:25:45.916Z,17.55
2018-08-30T02:26:06.624Z,17.53
2018-08-30T02:26:26.623Z,17.53
2018-08-30T02:26:46.471Z,17.52
2018-08-30T02:27:07.171Z,17.51
2018-08-30T02:27:27.018Z,17.52
2018-08-30T02:27:47.367Z,17.52
2018-08-30T02:28:08.012Z,17.52
2018-08-30T02:28:27.957Z,17.51
2018-08-30T02:28:48.595Z,17.51
2018-08-30T02:29:08.680Z,17.51
2018-08-30T02:29:28.529Z,17.51
2018-08-30T02:29:49.234Z,17.50
2018-08-30T02:30:09.087Z,17.48
2018-08-30T02:30:29.447Z,17.48
2018-08-30T02:30:50.176Z,17.48
2018-08-30T02:31:10.027Z,17.47
2018-08-30T02:31:30.374Z,17.48
2018-08-30T02:31:51.052Z,17.49
2018-08-30T02:32:10.908Z,17.48
2018-08-30T02:32:31.242Z,17.48
2018-08-30T02:32:51.914Z,17.47
2018-08-30T02:33:11.938Z,17.47
2018-08-30T02:33:31.820Z,17.48
2018-08-30T02:33:52.468Z,17.49
2018-08-30T02:34:12.305Z,17.47
2018-08-30T02:34:32.663Z,17.47
2018-08-30T02:34:53.009Z,17.45
2018-08-30T02:35:13.622Z,17.46
2018-08-30T02:35:33.817Z,17.47
2018-08-30T02:35:53.961Z,17.48
2018-08-30T02:36:13.991Z,17.49
2018-08-30T02:36:34.182Z,17.48
2018-08-30T02:36:54.330Z,17.49
2018-08-30T02:37:14.182Z,17.47
2018-08-30T02:37:34.891Z,17.47
2018-08-30T02:37:54.986Z,17.46
2018-08-30T02:38:14.832Z,17.47
2018-08-30T02:38:35.587Z,17.44
2018-08-30T02:38:55.445Z,17.45
2018-08-30T02:39:15.795Z,17.45
2018-08-30T02:39:36.550Z,17.46
2018-08-30T02:39:56.401Z,17.46
2018-08-30T02:40:17.071Z,17.43
2018-08-30T02:40:37.215Z,17.44
2018-08-30T02:40:57.095Z,17.45
2018-08-30T02:41:17.445Z,17.44
2018-08-30T02:41:38.089Z,17.45
2018-08-30T02:41:57.940Z,17.45
2018-08-30T02:42:18.588Z,17.46
2018-08-30T02:42:38.872Z,17.45
2018-08-30T02:42:58.730Z,17.46
2018-08-30T02:43:19.447Z,17.46
2018-08-30T02:43:39.462Z,17.46
2018-08-30T02:43:59.318Z,17.46
2018-08-30T02:44:20.066Z,17.45
2018-08-30T02:44:39.909Z,17.45
2018-08-30T02:45:00.350Z,17.43
2018-08-30T02:45:21.074Z,17.42
2018-08-30T02:45:40.938Z,17.44
2018-08-30T02:46:01.301Z,17.44
2018-08-30T02:46:21.916Z,17.43
2018-08-30T02:46:41.765Z,17.44
2018-08-30T02:47:02.315Z,17.44
2018-08-30T02:47:22.473Z,17.43
2018-08-30T02:47:42.369Z,17.42
2018-08-30T02:48:02.723Z,17.44
2018-08-30T02:48:23.369Z,17.44
2018-08-30T02:48:43.253Z,17.44
2018-08-30T02:49:03.991Z,17.45
2018-08-30T02:49:24.219Z,17.44
2018-08-30T02:49:44.026Z,17.44
2018-08-30T02:50:04.701Z,17.45
2018-08-30T02:50:24.549Z,17.44
2018-08-30T02:50:45.121Z,17.42
2018-08-30T02:51:05.323Z,17.43
2018-08-30T02:51:25.182Z,17.44
2018-08-30T02:51:45.517Z,17.43
2018-08-30T02:52:25.887Z,17.43
2018-08-30T02:52:46.237Z,17.43
2018-08-30T02:53:06.931Z,17.43
2018-08-30T02:53:26.783Z,17.42
2018-08-30T02:53:47.152Z,17.42
2018-08-30T02:54:07.749Z,17.43
2018-08-30T02:54:27.614Z,17.40
2018-08-30T02:54:48.021Z,17.41
2018-08-30T02:55:08.711Z,17.41
2018-08-30T02:55:28.591Z,17.41
2018-08-30T02:55:49.307Z,17.42
2018-08-30T02:56:09.632Z,17.42
2018-08-30T02:56:29.484Z,17.41
2018-08-30T02:56:50.182Z,17.42
2018-08-30T02:57:10.036Z,17.41
2018-08-30T02:57:30.378Z,17.41
2018-08-30T02:57:51.122Z,17.42
2018-08-30T02:58:11.094Z,17.42
2018-08-30T02:58:31.442Z,17.42
2018-08-30T02:58:52.094Z,17.42
2018-08-30T02:59:11.942Z,17.39
2018-08-30T02:59:32.299Z,17.40
2018-08-30T02:59:52.939Z,17.40
2018-08-30T03:00:32.813Z,17.40
2018-08-30T03:00:53.470Z,17.41
2018-08-30T03:01:13.320Z,17.40
2018-08-30T03:01:33.979Z,17.38
2018-08-30T03:01:54.017Z,17.39
2018-08-30T03:02:13.874Z,17.38
2018-08-30T03:02:34.614Z,17.41
2018-08-30T03:02:54.469Z,17.40
2018-08-30T03:03:14.832Z,17.40
2018-08-30T03:03:35.572Z,17.40
2018-08-30T03:03:55.440Z,17.40
2018-08-30T03:04:15.786Z,17.41
2018-08-30T03:04:36.490Z,17.41
2018-08-30T03:04:56.346Z,17.40
2018-08-30T03:05:16.762Z,17.40
2018-08-30T03:05:37.454Z,17.40
2018-08-30T03:05:57.319Z,17.40
2018-08-30T03:06:17.679Z,17.41
2018-08-30T03:06:38.329Z,17.40
2018-08-30T03:06:58.305Z,17.40
2018-08-30T03:07:19.020Z,17.41
2018-08-30T03:07:39.249Z,17.40
2018-08-30T03:07:59.108Z,17.40
2018-08-30T03:08:19.810Z,17.40
2018-08-30T03:08:39.815Z,17.40
2018-08-30T03:08:59.926Z,17.40
2018-08-30T03:09:20.116Z,17.39
2018-08-30T03:09:39.967Z,17.38
2018-08-30T03:10:00.333Z,17.38
2018-08-30T03:10:21.000Z,17.37
2018-08-30T03:10:40.866Z,17.36
2018-08-30T03:11:01.313Z,17.37
2018-08-30T03:11:21.935Z,17.36
2018-08-30T03:11:41.794Z,17.35
2018-08-30T03:12:02.365Z,17.36
2018-08-30T03:12:42.239Z,17.35
2018-08-30T03:13:02.602Z,17.34
2018-08-30T03:13:23.265Z,17.33
2018-08-30T03:13:43.205Z,17.31
2018-08-30T03:14:03.944Z,17.33
2018-08-30T03:14:24.074Z,17.33
2018-08-30T03:14:43.949Z,17.33
2018-08-30T03:15:04.699Z,17.33
2018-08-30T03:15:24.876Z,17.32
2018-08-30T03:15:44.739Z,17.30
2018-08-30T03:16:05.457Z,17.30
2018-08-30T03:16:25.539Z,17.31
2018-08-30T03:16:45.459Z,17.25
2018-08-30T03:17:06.180Z,17.25
2018-08-30T03:17:26.026Z,17.25
2018-08-30T03:17:46.461Z,17.26
2018-08-30T03:18:07.138Z,17.25
2018-08-30T03:18:27.126Z,17.26
2018-08-30T03:18:47.497Z,17.25
2018-08-30T03:19:08.151Z,17.24
2018-08-30T03:19:28.000Z,17.23
2018-08-30T03:19:48.646Z,17.20
2018-08-30T03:20:08.778Z,17.20
2018-08-30T03:20:28.630Z,17.17
2018-08-30T03:20:49.370Z,17.17
2018-08-30T03:21:09.225Z,17.16
2018-08-30T03:21:29.595Z,17.16
2018-08-30T03:21:50.315Z,17.15
2018-08-30T03:22:10.176Z,17.16
2018-08-30T03:22:30.537Z,17.14
2018-08-30T03:22:51.188Z,17.12
2018-08-30T03:23:11.055Z,17.10
2018-08-30T03:23:31.410Z,17.09
2018-08-30T03:23:52.045Z,17.09
2018-08-30T03:24:11.909Z,17.08
2018-08-30T03:24:32.264Z,17.07
2018-08-30T03:24:52.909Z,17.07
2018-08-30T03:25:13.009Z,17.05
2018-08-30T03:25:32.881Z,17.05
2018-08-30T03:25:53.520Z,17.04
2018-08-30T03:26:13.369Z,17.03
2018-08-30T03:26:34.062Z,17.04
2018-08-30T03:26:54.368Z,17.01
2018-08-30T03:27:14.222Z,17.01
2018-08-30T03:27:34.935Z,16.98
2018-08-30T03:27:54.782Z,16.98
2018-08-30T03:28:15.178Z,16.98
2018-08-30T03:28:35.908Z,16.98
2018-08-30T03:28:55.773Z,16.96
2018-08-30T03:29:16.133Z,16.96
2018-08-30T03:29:36.765Z,16.95
2018-08-30T03:29:56.615Z,16.95
2018-08-30T03:30:17.316Z,16.94
2018-08-30T03:30:37.460Z,16.95
2018-08-30T03:30:57.306Z,16.93
2018-08-30T03:31:17.639Z,16.94
2018-08-30T03:31:38.280Z,16.94
2018-08-30T03:31:58.136Z,16.96
2018-08-30T03:32:18.811Z,16.95
2018-08-30T03:32:38.930Z,16.95
2018-08-30T03:32:58.799Z,16.95
2018-08-30T03:33:19.549Z,16.94
2018-08-30T03:33:39.516Z,16.92
2018-08-30T03:33:59.881Z,16.94
2018-08-30T03:34:20.673Z,16.94
2018-08-30T03:34:40.521Z,16.94
2018-08-30T03:35:00.969Z,16.95
2018-08-30T03:35:21.646Z,16.96
2018-08-30T03:35:41.533Z,16.95
2018-08-30T03:36:02.036Z,16.96
2018-08-30T03:36:22.675Z,16.95
2018-08-30T03:36:42.528Z,16.96
2018-08-30T03:37:03.131Z,16.95
2018-08-30T03:37:23.281Z,16.94
2018-08-30T03:37:43.140Z,16.96
2018-08-30T03:38:03.881Z,16.95
2018-08-30T03:38:24.164Z,16.95
2018-08-30T03:38:44.012Z,16.94
2018-08-30T03:39:04.767Z,16.95
2018-08-30T03:39:24.703Z,16.97
2018-08-30T03:39:45.039Z,16.96
2018-08-30T03:40:05.752Z,16.98
2018-08-30T03:40:25.608Z,16.97
2018-08-30T03:40:45.970Z,16.96
2018-08-30T03:41:06.607Z,16.98
2018-08-30T03:41:26.457Z,16.98
2018-08-30T03:41:46.802Z,16.98
2018-08-30T03:42:07.465Z,16.99
2018-08-30T03:42:27.314Z,16.99
2018-08-30T03:42:47.664Z,16.98
2018-08-30T03:43:08.197Z,16.99
2018-08-30T03:43:28.045Z,16.99
2018-08-30T03:43:48.702Z,17.00
2018-08-30T03:44:08.567Z,16.99
2018-08-30T03:44:28.968Z,17.01
2018-08-30T03:44:49.661Z,17.01
2018-08-30T03:45:09.771Z,17.00
2018-08-30T03:45:29.630Z,17.01
2018-08-30T03:45:50.343Z,17.01
2018-08-30T03:46:10.202Z,17.01
2018-08-30T03:46:30.607Z,17.02
2018-08-30T03:46:51.293Z,17.01
2018-08-30T03:47:11.123Z,17.00
2018-08-30T03:47:31.514Z,17.01
2018-08-30T03:47:52.362Z,17.03
2018-08-30T03:48:12.219Z,17.02
2018-08-30T03:48:32.585Z,17.03
2018-08-30T03:48:53.230Z,17.04
2018-08-30T03:49:13.116Z,17.05
2018-08-30T03:49:33.810Z,17.04
2018-08-30T03:49:53.984Z,17.05
2018-08-30T03:50:14.018Z,17.05
2018-08-30T03:50:34.275Z,17.05
2018-08-30T03:50:54.442Z,17.05
2018-08-30T03:51:14.305Z,17.04
2018-08-30T03:51:35.038Z,17.06
2018-08-30T03:51:54.895Z,17.06
2018-08-30T03:52:15.253Z,17.06
2018-08-30T03:52:35.975Z,17.07
2018-08-30T03:52:55.827Z,17.10
2018-08-30T03:53:16.195Z,17.08
2018-08-30T03:53:36.929Z,17.07
2018-08-30T03:53:56.792Z,17.06
2018-08-30T03:54:17.246Z,17.08
2018-08-30T03:54:37.886Z,17.07
2018-08-30T03:54:57.753Z,17.07
2018-08-30T03:55:18.366Z,17.07
2018-08-30T03:55:38.868Z,17.08
2018-08-30T03:55:58.797Z,17.07
2018-08-30T03:56:19.527Z,17.08
2018-08-30T03:56:39.488Z,17.08
2018-08-30T03:56:59.924Z,17.09
2018-08-30T03:57:20.682Z,17.08
2018-08-30T03:57:40.505Z,17.09
2018-08-30T03:58:00.866Z,17.10
2018-08-30T03:58:21.328Z,17.11
2018-08-30T03:58:41.680Z,17.10
2018-08-30T03:59:02.369Z,17.09
2018-08-30T03:59:22.544Z,17.09
2018-08-30T03:59:42.401Z,17.11
2018-08-30T04:00:03.044Z,17.11
2018-08-30T04:00:23.184Z,17.10
2018-08-30T04:00:43.047Z,17.10
2018-08-30T04:01:03.734Z,17.10
2018-08-30T04:01:23.892Z,17.12
2018-08-30T04:01:43.744Z,17.12
2018-08-30T04:02:04.484Z,17.12
2018-08-30T04:02:24.596Z,17.11
2018-08-30T04:02:44.442Z,17.12
2018-08-30T04:03:05.159Z,17.13
2018-08-30T04:03:25.009Z,17.12
2018-08-30T04:03:45.362Z,17.13
2018-08-30T04:04:06.107Z,17.13
2018-08-30T04:04:26.040Z,17.14
2018-08-30T04:04:46.318Z,17.12
2018-08-30T04:05:06.991Z,17.13
2018-08-30T04:05:26.850Z,17.14
2018-08-30T04:05:47.201Z,17.12
2018-08-30T04:06:07.802Z,17.13
2018-08-30T04:06:27.657Z,17.13
2018-08-30T04:06:48.126Z,17.16
2018-08-30T04:07:08.492Z,17.16
2018-08-30T04:07:28.848Z,17.16
2018-08-30T04:07:49.596Z,17.17
2018-08-30T04:08:09.563Z,17.16
2018-08-30T04:08:29.923Z,17.15
2018-08-30T04:08:50.636Z,17.15
2018-08-30T04:09:10.909Z,17.17
2018-08-30T04:09:30.762Z,17.18
2018-08-30T04:09:51.484Z,17.17
2018-08-30T04:10:11.539Z,17.17
2018-08-30T04:10:31.443Z,17.18
2018-08-30T04:10:52.127Z,17.20
2018-08-30T04:11:12.028Z,17.20
2018-08-30T04:11:32.388Z,17.22
2018-08-30T04:11:53.022Z,17.20
2018-08-30T04:12:12.875Z,17.21
2018-08-30T04:12:33.421Z,17.20
2018-08-30T04:12:53.583Z,17.20
2018-08-30T04:13:13.513Z,17.20
2018-08-30T04:13:34.229Z,17.21
2018-08-30T04:13:54.300Z,17.22
2018-08-30T04:14:14.157Z,17.21
2018-08-30T04:14:34.860Z,17.22
2018-08-30T04:14:54.714Z,17.22
2018-08-30T04:15:15.388Z,17.23
2018-08-30T04:15:35.572Z,17.23
2018-08-30T04:15:55.424Z,17.23
2018-08-30T04:16:15.819Z,17.23
2018-08-30T04:16:36.495Z,17.23
2018-08-30T04:16:56.395Z,17.23
2018-08-30T04:17:16.897Z,17.24
2018-08-30T04:17:37.104Z,17.24
2018-08-30T04:17:56.961Z,17.24
2018-08-30T04:18:17.324Z,17.24
2018-08-30T04:18:37.969Z,17.25
2018-08-30T04:18:57.881Z,17.25
2018-08-30T04:19:18.459Z,17.24
2018-08-30T04:19:38.606Z,17.25
2018-08-30T04:19:58.478Z,17.25
2018-08-30T04:20:19.205Z,17.25
2018-08-30T04:20:39.324Z,17.26
2018-08-30T04:21:19.544Z,17.26
2018-08-30T04:21:39.397Z,17.25
2018-08-30T04:21:59.799Z,17.25
2018-08-30T04:22:20.467Z,17.24
2018-08-30T04:22:40.605Z,17.26